KRID/RID METAR and TAF weather

Enter ICAO airport designator
Station Type Date Time Source
KRID METAR 2020/01/22 18:15 UTC NOAA

KRID 221815Z AUTO 20008KT 10SM CLR M01/M07 A3033 RMK AO2


Station Type Date Time Source
KRID Decoded METAR 2020/01/22 18:15 UTC NOAA

Station name not available
Jan 22, 2020 - 01:15 PM EST / 2020.01.22 1815 UTC
Wind: from the SSW (200 degrees) at 9 MPH (8 KT):0
Visibility: 10 mile(s):0
Sky conditions: clear
Temperature: 30 F (-1 C)
Windchill: 21 F (-6 C):1
Dew Point: 19 F (-7 C)
Relative Humidity: 63%
Pressure (altimeter): 30.33 in. Hg (1027 hPa)
ob: KRID 221815Z AUTO 20008KT 10SM CLR M01/M07 A3033 RMK AO2
cycle: 18

Station Type Date Time Source
KRID TAF UTC NOAA

Error!

Example: see airport list